sensor_id;sensor_type;location;lat;lon;timestamp;P1;durP1;ratioP1;P2;durP2;ratioP2
20114;SDS011;10218;42.874;25.320;2023-07-31T00:00:15;15.63;;;12.23;;
20114;SDS011;10218;42.874;25.320;2023-07-31T00:02:43;15.47;;;13.83;;
20114;SDS011;10218;42.874;25.320;2023-07-31T00:05:10;15.20;;;13.60;;
20114;SDS011;10218;42.874;25.320;2023-07-31T00:07:37;15.67;;;14.17;;
20114;SDS011;10218;42.874;25.320;2023-07-31T00:10:04;16.30;;;14.73;;
20114;SDS011;10218;42.874;25.320;2023-07-31T00:12:31;19.07;;;14.33;;
20114;SDS011;10218;42.874;25.320;2023-07-31T00:14:59;16.50;;;14.90;;
20114;SDS011;10218;42.874;25.320;2023-07-31T00:17:26;17.60;;;15.07;;
20114;SDS011;10218;42.874;25.320;2023-07-31T00:19:53;16.87;;;15.03;;
20114;SDS011;10218;42.874;25.320;2023-07-31T00:22:20;16.40;;;14.70;;
20114;SDS011;10218;42.874;25.320;2023-07-31T00:24:48;16.57;;;14.87;;
20114;SDS011;10218;42.874;25.320;2023-07-31T00:27:15;17.90;;;15.37;;
20114;SDS011;10218;42.874;25.320;2023-07-31T00:29:42;17.07;;;15.27;;
20114;SDS011;10218;42.874;25.320;2023-07-31T00:32:10;16.23;;;14.67;;
20114;SDS011;10218;42.874;25.320;2023-07-31T00:34:37;17.60;;;14.87;;
20114;SDS011;10218;42.874;25.320;2023-07-31T00:37:04;17.33;;;15.60;;
20114;SDS011;10218;42.874;25.320;2023-07-31T00:39:33;17.93;;;15.83;;
20114;SDS011;10218;42.874;25.320;2023-07-31T00:42:00;17.93;;;16.23;;
20114;SDS011;10218;42.874;25.320;2023-07-31T00:44:28;16.47;;;14.77;;
20114;SDS011;10218;42.874;25.320;2023-07-31T00:46:55;17.33;;;15.57;;
20114;SDS011;10218;42.874;25.320;2023-07-31T00:49:23;17.90;;;15.67;;
20114;SDS011;10218;42.874;25.320;2023-07-31T00:51:50;17.63;;;15.87;;
20114;SDS011;10218;42.874;25.320;2023-07-31T00:54:17;20.53;;;16.73;;
20114;SDS011;10218;42.874;25.320;2023-07-31T00:56:45;17.53;;;15.87;;
20114;SDS011;10218;42.874;25.320;2023-07-31T00:59:14;18.00;;;16.20;;
20114;SDS011;10218;42.874;25.320;2023-07-31T01:01:42;18.17;;;16.27;;
20114;SDS011;10218;42.874;25.320;2023-07-31T01:04:09;19.20;;;16.70;;
20114;SDS011;10218;42.874;25.320;2023-07-31T01:06:36;18.03;;;16.23;;
20114;SDS011;10218;42.874;25.320;2023-07-31T01:09:16;19.00;;;17.20;;
20114;SDS011;10218;42.874;25.320;2023-07-31T01:11:53;19.30;;;17.40;;
20114;SDS011;10218;42.874;25.320;2023-07-31T01:14:27;19.80;;;17.70;;
20114;SDS011;10218;42.874;25.320;2023-07-31T01:16:54;19.23;;;17.30;;
20114;SDS011;10218;42.874;25.320;2023-07-31T01:19:22;21.00;;;17.57;;
20114;SDS011;10218;42.874;25.320;2023-07-31T01:21:58;19.63;;;17.63;;
20114;SDS011;10218;42.874;25.320;2023-07-31T01:27:56;19.50;;;17.70;;
20114;SDS011;10218;42.874;25.320;2023-07-31T01:30:27;19.50;;;17.63;;
20114;SDS011;10218;42.874;25.320;2023-07-31T01:33:03;20.97;;;18.87;;
20114;SDS011;10218;42.874;25.320;2023-07-31T01:35:34;22.27;;;18.53;;
20114;SDS011;10218;42.874;25.320;2023-07-31T01:38:02;21.13;;;19.10;;
20114;SDS011;10218;42.874;25.320;2023-07-31T01:40:31;22.57;;;19.00;;
20114;SDS011;10218;42.874;25.320;2023-07-31T01:42:58;20.33;;;18.30;;
20114;SDS011;10218;42.874;25.320;2023-07-31T01:45:25;19.67;;;17.63;;
20114;SDS011;10218;42.874;25.320;2023-07-31T01:47:53;19.67;;;17.67;;
20114;SDS011;10218;42.874;25.320;2023-07-31T01:50:20;20.10;;;18.10;;
20114;SDS011;10218;42.874;25.320;2023-07-31T01:52:47;19.37;;;17.47;;
20114;SDS011;10218;42.874;25.320;2023-07-31T01:55:14;19.07;;;17.27;;
20114;SDS011;10218;42.874;25.320;2023-07-31T01:57:42;20.53;;;18.43;;
20114;SDS011;10218;42.874;25.320;2023-07-31T02:00:09;20.27;;;18.27;;
20114;SDS011;10218;42.874;25.320;2023-07-31T02:02:37;19.27;;;17.37;;
20114;SDS011;10218;42.874;25.320;2023-07-31T02:05:04;19.70;;;17.73;;
20114;SDS011;10218;42.874;25.320;2023-07-31T02:07:32;20.40;;;18.43;;
20114;SDS011;10218;42.874;25.320;2023-07-31T02:09:58;19.73;;;17.77;;
20114;SDS011;10218;42.874;25.320;2023-07-31T02:12:26;20.57;;;18.00;;
20114;SDS011;10218;42.874;25.320;2023-07-31T02:14:53;19.37;;;17.43;;
20114;SDS011;10218;42.874;25.320;2023-07-31T02:17:20;19.80;;;16.80;;
20114;SDS011;10218;42.874;25.320;2023-07-31T02:19:48;18.57;;;16.83;;
20114;SDS011;10218;42.874;25.320;2023-07-31T02:22:15;20.20;;;17.57;;
20114;SDS011;10218;42.874;25.320;2023-07-31T02:24:42;19.10;;;17.13;;
20114;SDS011;10218;42.874;25.320;2023-07-31T02:27:09;19.80;;;17.90;;
20114;SDS011;10218;42.874;25.320;2023-07-31T02:29:36;19.70;;;17.77;;
20114;SDS011;10218;42.874;25.320;2023-07-31T02:32:03;19.07;;;17.17;;
20114;SDS011;10218;42.874;25.320;2023-07-31T02:34:31;18.33;;;16.53;;
20114;SDS011;10218;42.874;25.320;2023-07-31T02:36:58;19.07;;;17.20;;
20114;SDS011;10218;42.874;25.320;2023-07-31T02:39:25;18.37;;;16.47;;
20114;SDS011;10218;42.874;25.320;2023-07-31T02:41:53;18.73;;;16.93;;
20114;SDS011;10218;42.874;25.320;2023-07-31T02:44:20;19.83;;;17.60;;
20114;SDS011;10218;42.874;25.320;2023-07-31T02:46:47;20.97;;;17.50;;
20114;SDS011;10218;42.874;25.320;2023-07-31T02:49:16;21.33;;;19.20;;
20114;SDS011;10218;42.874;25.320;2023-07-31T02:51:43;22.33;;;20.10;;
20114;SDS011;10218;42.874;25.320;2023-07-31T02:54:10;22.77;;;20.50;;
20114;SDS011;10218;42.874;25.320;2023-07-31T02:56:37;25.17;;;22.57;;
20114;SDS011;10218;42.874;25.320;2023-07-31T02:59:04;24.90;;;22.50;;
20114;SDS011;10218;42.874;25.320;2023-07-31T03:01:31;24.27;;;22.07;;
20114;SDS011;10218;42.874;25.320;2023-07-31T03:03:58;24.80;;;22.47;;
20114;SDS011;10218;42.874;25.320;2023-07-31T03:06:26;23.90;;;21.53;;
20114;SDS011;10218;42.874;25.320;2023-07-31T03:08:53;25.33;;;22.87;;
20114;SDS011;10218;42.874;25.320;2023-07-31T03:11:21;23.93;;;21.43;;
20114;SDS011;10218;42.874;25.320;2023-07-31T03:13:48;23.77;;;21.27;;
20114;SDS011;10218;42.874;25.320;2023-07-31T03:16:15;23.43;;;20.90;;
20114;SDS011;10218;42.874;25.320;2023-07-31T03:18:42;22.17;;;19.97;;
20114;SDS011;10218;42.874;25.320;2023-07-31T03:21:09;22.00;;;20.00;;
20114;SDS011;10218;42.874;25.320;2023-07-31T03:23:36;22.67;;;20.37;;
20114;SDS011;10218;42.874;25.320;2023-07-31T03:26:07;23.30;;;21.00;;
20114;SDS011;10218;42.874;25.320;2023-07-31T03:28:35;23.13;;;20.63;;
20114;SDS011;10218;42.874;25.320;2023-07-31T03:31:03;22.87;;;20.73;;
20114;SDS011;10218;42.874;25.320;2023-07-31T03:33:31;23.33;;;21.10;;
20114;SDS011;10218;42.874;25.320;2023-07-31T03:35:58;24.43;;;20.90;;
20114;SDS011;10218;42.874;25.320;2023-07-31T03:38:25;24.50;;;21.77;;
20114;SDS011;10218;42.874;25.320;2023-07-31T03:40:53;23.70;;;21.43;;
20114;SDS011;10218;42.874;25.320;2023-07-31T03:43:20;24.37;;;21.80;;
20114;SDS011;10218;42.874;25.320;2023-07-31T03:45:47;24.37;;;21.87;;
20114;SDS011;10218;42.874;25.320;2023-07-31T03:48:14;24.03;;;21.73;;
20114;SDS011;10218;42.874;25.320;2023-07-31T03:50:43;24.97;;;22.40;;
20114;SDS011;10218;42.874;25.320;2023-07-31T03:53:10;24.10;;;21.70;;
20114;SDS011;10218;42.874;25.320;2023-07-31T03:55:37;23.93;;;20.70;;
20114;SDS011;10218;42.874;25.320;2023-07-31T03:58:04;23.33;;;21.03;;
20114;SDS011;10218;42.874;25.320;2023-07-31T04:00:31;23.37;;;21.00;;
20114;SDS011;10218;42.874;25.320;2023-07-31T04:02:58;24.93;;;22.40;;
20114;SDS011;10218;42.874;25.320;2023-07-31T04:05:25;22.77;;;20.23;;
20114;SDS011;10218;42.874;25.320;2023-07-31T04:07:52;22.27;;;20.10;;
20114;SDS011;10218;42.874;25.320;2023-07-31T04:10:20;23.73;;;20.50;;
20114;SDS011;10218;42.874;25.320;2023-07-31T04:12:47;21.87;;;19.70;;
20114;SDS011;10218;42.874;25.320;2023-07-31T04:15:14;25.40;;;20.50;;
20114;SDS011;10218;42.874;25.320;2023-07-31T04:17:41;21.80;;;19.70;;
20114;SDS011;10218;42.874;25.320;2023-07-31T04:20:09;21.27;;;19.17;;
20114;SDS011;10218;42.874;25.320;2023-07-31T04:22:36;22.47;;;20.00;;
20114;SDS011;10218;42.874;25.320;2023-07-31T04:25:04;20.80;;;18.77;;
20114;SDS011;10218;42.874;25.320;2023-07-31T04:27:31;22.67;;;20.37;;
20114;SDS011;10218;42.874;25.320;2023-07-31T04:29:58;24.10;;;20.57;;
20114;SDS011;10218;42.874;25.320;2023-07-31T04:32:25;27.27;;;22.27;;
20114;SDS011;10218;42.874;25.320;2023-07-31T04:34:52;23.30;;;21.13;;
20114;SDS011;10218;42.874;25.320;2023-07-31T04:37:19;22.63;;;20.27;;
20114;SDS011;10218;42.874;25.320;2023-07-31T04:39:47;23.93;;;21.47;;
20114;SDS011;10218;42.874;25.320;2023-07-31T04:42:14;22.27;;;20.17;;
20114;SDS011;10218;42.874;25.320;2023-07-31T04:44:41;23.33;;;20.90;;
20114;SDS011;10218;42.874;25.320;2023-07-31T04:47:08;23.20;;;20.80;;
20114;SDS011;10218;42.874;25.320;2023-07-31T04:49:35;24.43;;;20.50;;
20114;SDS011;10218;42.874;25.320;2023-07-31T04:52:02;23.57;;;21.13;;
20114;SDS011;10218;42.874;25.320;2023-07-31T04:54:30;23.30;;;21.00;;
20114;SDS011;10218;42.874;25.320;2023-07-31T04:56:57;22.93;;;20.80;;
20114;SDS011;10218;42.874;25.320;2023-07-31T04:59:24;25.30;;;21.40;;
20114;SDS011;10218;42.874;25.320;2023-07-31T05:01:51;24.93;;;22.33;;
20114;SDS011;10218;42.874;25.320;2023-07-31T05:04:18;24.83;;;22.30;;
20114;SDS011;10218;42.874;25.320;2023-07-31T05:06:45;28.70;;;22.07;;
20114;SDS011;10218;42.874;25.320;2023-07-31T05:09:12;25.83;;;23.23;;
20114;SDS011;10218;42.874;25.320;2023-07-31T05:11:39;24.30;;;21.90;;
20114;SDS011;10218;42.874;25.320;2023-07-31T05:14:09;24.50;;;22.00;;
20114;SDS011;10218;42.874;25.320;2023-07-31T05:16:36;24.73;;;22.10;;
20114;SDS011;10218;42.874;25.320;2023-07-31T05:19:03;26.73;;;23.43;;
20114;SDS011;10218;42.874;25.320;2023-07-31T05:21:30;26.43;;;24.03;;
20114;SDS011;10218;42.874;25.320;2023-07-31T05:23:57;26.53;;;23.93;;
20114;SDS011;10218;42.874;25.320;2023-07-31T05:26:25;25.47;;;23.00;;
20114;SDS011;10218;42.874;25.320;2023-07-31T05:28:52;26.83;;;24.13;;
20114;SDS011;10218;42.874;25.320;2023-07-31T05:31:19;26.70;;;24.20;;
20114;SDS011;10218;42.874;25.320;2023-07-31T05:33:47;25.70;;;23.00;;
20114;SDS011;10218;42.874;25.320;2023-07-31T05:36:16;26.90;;;24.30;;
20114;SDS011;10218;42.874;25.320;2023-07-31T05:38:44;25.00;;;21.87;;
20114;SDS011;10218;42.874;25.320;2023-07-31T05:41:11;24.77;;;22.27;;
20114;SDS011;10218;42.874;25.320;2023-07-31T05:43:39;28.60;;;25.43;;
20114;SDS011;10218;42.874;25.320;2023-07-31T05:46:06;24.77;;;22.10;;
20114;SDS011;10218;42.874;25.320;2023-07-31T05:48:35;24.83;;;22.33;;
20114;SDS011;10218;42.874;25.320;2023-07-31T05:51:02;23.67;;;21.37;;
20114;SDS011;10218;42.874;25.320;2023-07-31T05:53:30;19.90;;;17.90;;
20114;SDS011;10218;42.874;25.320;2023-07-31T05:55:57;19.57;;;17.57;;
20114;SDS011;10218;42.874;25.320;2023-07-31T05:58:23;20.03;;;17.93;;
20114;SDS011;10218;42.874;25.320;2023-07-31T06:00:51;22.03;;;18.60;;
20114;SDS011;10218;42.874;25.320;2023-07-31T06:03:18;21.47;;;18.70;;
20114;SDS011;10218;42.874;25.320;2023-07-31T06:05:45;19.03;;;17.03;;
20114;SDS011;10218;42.874;25.320;2023-07-31T06:08:15;18.90;;;16.90;;
20114;SDS011;10218;42.874;25.320;2023-07-31T06:10:42;19.30;;;16.60;;
20114;SDS011;10218;42.874;25.320;2023-07-31T06:13:09;19.13;;;17.13;;
20114;SDS011;10218;42.874;25.320;2023-07-31T06:15:36;18.83;;;16.93;;
20114;SDS011;10218;42.874;25.320;2023-07-31T06:18:04;20.10;;;17.87;;
20114;SDS011;10218;42.874;25.320;2023-07-31T06:20:34;19.50;;;17.40;;
20114;SDS011;10218;42.874;25.320;2023-07-31T06:23:01;19.90;;;17.80;;
20114;SDS011;10218;42.874;25.320;2023-07-31T06:25:30;18.77;;;16.87;;
20114;SDS011;10218;42.874;25.320;2023-07-31T06:27:57;18.50;;;16.40;;
20114;SDS011;10218;42.874;25.320;2023-07-31T06:30:24;18.27;;;16.40;;
20114;SDS011;10218;42.874;25.320;2023-07-31T06:32:52;20.10;;;16.57;;
20114;SDS011;10218;42.874;25.320;2023-07-31T06:35:19;18.87;;;16.43;;
20114;SDS011;10218;42.874;25.320;2023-07-31T06:37:46;18.13;;;16.23;;
20114;SDS011;10218;42.874;25.320;2023-07-31T06:40:13;25.27;;;21.60;;
20114;SDS011;10218;42.874;25.320;2023-07-31T06:42:40;21.67;;;19.30;;
20114;SDS011;10218;42.874;25.320;2023-07-31T06:45:07;19.40;;;17.40;;
20114;SDS011;10218;42.874;25.320;2023-07-31T06:47:35;20.07;;;18.07;;
20114;SDS011;10218;42.874;25.320;2023-07-31T06:50:02;19.07;;;17.03;;
20114;SDS011;10218;42.874;25.320;2023-07-31T06:52:29;18.83;;;16.63;;
20114;SDS011;10218;42.874;25.320;2023-07-31T06:55:00;23.07;;;19.73;;
20114;SDS011;10218;42.874;25.320;2023-07-31T06:57:30;20.30;;;18.17;;
20114;SDS011;10218;42.874;25.320;2023-07-31T06:59:57;19.23;;;16.20;;
20114;SDS011;10218;42.874;25.320;2023-07-31T07:02:25;17.40;;;15.70;;
20114;SDS011;10218;42.874;25.320;2023-07-31T07:04:52;18.40;;;16.47;;
20114;SDS011;10218;42.874;25.320;2023-07-31T07:07:19;17.67;;;15.87;;
20114;SDS011;10218;42.874;25.320;2023-07-31T07:09:46;18.13;;;16.23;;
20114;SDS011;10218;42.874;25.320;2023-07-31T07:12:13;18.90;;;16.93;;
20114;SDS011;10218;42.874;25.320;2023-07-31T07:14:40;17.83;;;16.00;;
20114;SDS011;10218;42.874;25.320;2023-07-31T07:17:07;17.67;;;15.80;;
20114;SDS011;10218;42.874;25.320;2023-07-31T07:19:34;16.80;;;15.10;;
20114;SDS011;10218;42.874;25.320;2023-07-31T07:22:02;19.80;;;15.27;;
20114;SDS011;10218;42.874;25.320;2023-07-31T07:24:29;17.97;;;16.07;;
20114;SDS011;10218;42.874;25.320;2023-07-31T07:26:56;16.73;;;15.10;;
20114;SDS011;10218;42.874;25.320;2023-07-31T07:29:23;16.00;;;14.40;;
20114;SDS011;10218;42.874;25.320;2023-07-31T07:31:50;17.30;;;14.27;;
20114;SDS011;10218;42.874;25.320;2023-07-31T07:34:17;17.13;;;15.30;;
20114;SDS011;10218;42.874;25.320;2023-07-31T07:36:44;21.13;;;15.60;;
20114;SDS011;10218;42.874;25.320;2023-07-31T07:39:12;17.73;;;14.73;;
20114;SDS011;10218;42.874;25.320;2023-07-31T07:41:39;17.53;;;15.20;;
20114;SDS011;10218;42.874;25.320;2023-07-31T07:44:07;14.60;;;13.10;;
20114;SDS011;10218;42.874;25.320;2023-07-31T07:46:34;15.27;;;12.93;;
20114;SDS011;10218;42.874;25.320;2023-07-31T07:49:01;15.50;;;12.43;;
20114;SDS011;10218;42.874;25.320;2023-07-31T07:51:29;13.33;;;11.97;;
20114;SDS011;10218;42.874;25.320;2023-07-31T07:53:58;13.50;;;12.10;;
20114;SDS011;10218;42.874;25.320;2023-07-31T07:56:25;14.10;;;12.30;;
20114;SDS011;10218;42.874;25.320;2023-07-31T07:58:54;13.23;;;11.83;;
20114;SDS011;10218;42.874;25.320;2023-07-31T08:01:21;13.43;;;12.03;;
20114;SDS011;10218;42.874;25.320;2023-07-31T08:03:49;17.50;;;12.80;;
20114;SDS011;10218;42.874;25.320;2023-07-31T08:06:16;11.80;;;10.40;;
20114;SDS011;10218;42.874;25.320;2023-07-31T08:08:43;13.13;;;10.63;;
20114;SDS011;10218;42.874;25.320;2023-07-31T08:11:10;10.67;;;9.10;;
20114;SDS011;10218;42.874;25.320;2023-07-31T08:13:37;15.37;;;10.10;;
20114;SDS011;10218;42.874;25.320;2023-07-31T08:16:04;12.57;;;9.60;;
20114;SDS011;10218;42.874;25.320;2023-07-31T08:18:32;10.93;;;9.83;;
20114;SDS011;10218;42.874;25.320;2023-07-31T08:20:59;12.13;;;9.60;;
20114;SDS011;10218;42.874;25.320;2023-07-31T08:23:28;10.87;;;9.63;;
20114;SDS011;10218;42.874;25.320;2023-07-31T08:25:56;11.37;;;9.37;;
20114;SDS011;10218;42.874;25.320;2023-07-31T08:28:23;13.47;;;9.30;;
20114;SDS011;10218;42.874;25.320;2023-07-31T08:30:50;9.73;;;8.70;;
20114;SDS011;10218;42.874;25.320;2023-07-31T08:33:17;9.37;;;8.47;;
20114;SDS011;10218;42.874;25.320;2023-07-31T08:35:44;9.23;;;8.23;;
20114;SDS011;10218;42.874;25.320;2023-07-31T08:38:11;11.23;;;8.87;;
20114;SDS011;10218;42.874;25.320;2023-07-31T08:40:39;10.53;;;9.53;;
20114;SDS011;10218;42.874;25.320;2023-07-31T08:43:06;9.57;;;8.47;;
20114;SDS011;10218;42.874;25.320;2023-07-31T08:45:34;9.80;;;7.90;;
20114;SDS011;10218;42.874;25.320;2023-07-31T08:48:01;8.90;;;8.00;;
20114;SDS011;10218;42.874;25.320;2023-07-31T08:50:29;8.63;;;7.73;;
20114;SDS011;10218;42.874;25.320;2023-07-31T08:52:56;8.80;;;7.90;;
20114;SDS011;10218;42.874;25.320;2023-07-31T08:55:24;8.23;;;7.13;;
20114;SDS011;10218;42.874;25.320;2023-07-31T08:57:52;8.00;;;6.70;;
20114;SDS011;10218;42.874;25.320;2023-07-31T09:00:20;9.60;;;7.10;;
20114;SDS011;10218;42.874;25.320;2023-07-31T09:03:03;8.37;;;6.63;;
20114;SDS011;10218;42.874;25.320;2023-07-31T09:05:43;8.00;;;7.20;;
20114;SDS011;10218;42.874;25.320;2023-07-31T09:08:15;7.93;;;7.00;;
20114;SDS011;10218;42.874;25.320;2023-07-31T09:10:46;8.83;;;7.07;;
20114;SDS011;10218;42.874;25.320;2023-07-31T09:13:14;7.03;;;6.43;;
20114;SDS011;10218;42.874;25.320;2023-07-31T09:15:43;10.70;;;6.60;;
20114;SDS011;10218;42.874;25.320;2023-07-31T09:18:12;7.40;;;6.60;;
20114;SDS011;10218;42.874;25.320;2023-07-31T09:20:41;7.20;;;5.77;;
20114;SDS011;10218;42.874;25.320;2023-07-31T09:23:12;8.50;;;6.20;;
20114;SDS011;10218;42.874;25.320;2023-07-31T09:25:43;6.23;;;5.63;;
20114;SDS011;10218;42.874;25.320;2023-07-31T09:28:11;6.23;;;5.50;;
20114;SDS011;10218;42.874;25.320;2023-07-31T09:33:13;7.57;;;5.40;;
20114;SDS011;10218;42.874;25.320;2023-07-31T09:35:41;5.97;;;4.90;;
20114;SDS011;10218;42.874;25.320;2023-07-31T09:38:08;6.07;;;4.80;;
20114;SDS011;10218;42.874;25.320;2023-07-31T09:40:38;10.17;;;6.07;;
20114;SDS011;10218;42.874;25.320;2023-07-31T09:43:08;5.70;;;5.07;;
20114;SDS011;10218;42.874;25.320;2023-07-31T09:45:40;6.93;;;4.70;;
20114;SDS011;10218;42.874;25.320;2023-07-31T09:48:18;5.17;;;4.67;;
20114;SDS011;10218;42.874;25.320;2023-07-31T09:50:46;8.37;;;4.80;;
20114;SDS011;10218;42.874;25.320;2023-07-31T09:53:15;7.13;;;4.23;;
20114;SDS011;10218;42.874;25.320;2023-07-31T09:55:43;5.90;;;4.77;;
20114;SDS011;10218;42.874;25.320;2023-07-31T09:58:11;4.97;;;4.00;;
20114;SDS011;10218;42.874;25.320;2023-07-31T10:00:39;5.60;;;4.30;;
20114;SDS011;10218;42.874;25.320;2023-07-31T10:03:08;4.60;;;4.00;;
20114;SDS011;10218;42.874;25.320;2023-07-31T10:08:05;5.10;;;4.60;;
20114;SDS011;10218;42.874;25.320;2023-07-31T10:10:35;7.10;;;4.20;;
20114;SDS011;10218;42.874;25.320;2023-07-31T10:13:04;7.00;;;3.57;;
20114;SDS011;10218;42.874;25.320;2023-07-31T10:15:32;4.67;;;4.17;;
20114;SDS011;10218;42.874;25.320;2023-07-31T10:18:01;4.33;;;3.93;;
20114;SDS011;10218;42.874;25.320;2023-07-31T10:20:29;4.00;;;3.60;;
20114;SDS011;10218;42.874;25.320;2023-07-31T10:22:56;5.47;;;4.13;;
20114;SDS011;10218;42.874;25.320;2023-07-31T10:25:24;5.23;;;3.77;;
20114;SDS011;10218;42.874;25.320;2023-07-31T10:27:53;9.30;;;3.47;;
20114;SDS011;10218;42.874;25.320;2023-07-31T10:30:22;4.22;;;3.83;;
20114;SDS011;10218;42.874;25.320;2023-07-31T10:32:53;3.87;;;3.28;;
20114;SDS011;10218;42.874;25.320;2023-07-31T10:35:21;3.97;;;3.20;;
20114;SDS011;10218;42.874;25.320;2023-07-31T10:37:49;5.18;;;3.40;;
20114;SDS011;10218;42.874;25.320;2023-07-31T10:40:17;4.32;;;3.50;;
20114;SDS011;10218;42.874;25.320;2023-07-31T10:42:47;3.62;;;3.33;;
20114;SDS011;10218;42.874;25.320;2023-07-31T10:48:15;4.63;;;4.17;;
20114;SDS011;10218;42.874;25.320;2023-07-31T10:53:28;6.37;;;4.23;;
20114;SDS011;10218;42.874;25.320;2023-07-31T10:56:00;4.53;;;3.80;;
20114;SDS011;10218;42.874;25.320;2023-07-31T10:58:29;6.43;;;4.50;;
20114;SDS011;10218;42.874;25.320;2023-07-31T11:01:00;4.13;;;3.80;;
20114;SDS011;10218;42.874;25.320;2023-07-31T11:06:10;4.60;;;4.20;;
20114;SDS011;10218;42.874;25.320;2023-07-31T11:08:42;5.43;;;4.87;;
20114;SDS011;10218;42.874;25.320;2023-07-31T11:11:11;6.17;;;4.90;;
20114;SDS011;10218;42.874;25.320;2023-07-31T11:16:10;5.50;;;4.60;;
20114;SDS011;10218;42.874;25.320;2023-07-31T11:18:40;4.17;;;3.77;;
20114;SDS011;10218;42.874;25.320;2023-07-31T11:21:11;4.73;;;4.23;;
20114;SDS011;10218;42.874;25.320;2023-07-31T11:23:40;5.53;;;4.10;;
20114;SDS011;10218;42.874;25.320;2023-07-31T11:26:08;4.10;;;3.70;;
20114;SDS011;10218;42.874;25.320;2023-07-31T11:28:35;3.50;;;3.20;;
20114;SDS011;10218;42.874;25.320;2023-07-31T11:31:03;5.67;;;3.20;;
20114;SDS011;10218;42.874;25.320;2023-07-31T11:33:30;4.00;;;3.07;;
20114;SDS011;10218;42.874;25.320;2023-07-31T11:35:58;4.77;;;3.00;;
20114;SDS011;10218;42.874;25.320;2023-07-31T11:38:29;3.50;;;3.20;;
20114;SDS011;10218;42.874;25.320;2023-07-31T11:41:02;3.43;;;3.03;;
20114;SDS011;10218;42.874;25.320;2023-07-31T11:43:30;3.87;;;3.10;;
20114;SDS011;10218;42.874;25.320;2023-07-31T11:47:11;4.27;;;3.40;;
20114;SDS011;10218;42.874;25.320;2023-07-31T11:49:38;5.37;;;3.70;;
20114;SDS011;10218;42.874;25.320;2023-07-31T11:52:06;3.40;;;3.10;;
20114;SDS011;10218;42.874;25.320;2023-07-31T11:54:33;3.20;;;2.90;;
20114;SDS011;10218;42.874;25.320;2023-07-31T11:57:01;5.80;;;3.50;;
20114;SDS011;10218;42.874;25.320;2023-07-31T11:59:28;3.50;;;3.20;;
20114;SDS011;10218;42.874;25.320;2023-07-31T12:01:56;4.10;;;3.37;;
20114;SDS011;10218;42.874;25.320;2023-07-31T12:04:24;4.13;;;3.70;;
20114;SDS011;10218;42.874;25.320;2023-07-31T12:06:52;3.63;;;3.33;;
20114;SDS011;10218;42.874;25.320;2023-07-31T12:09:20;4.30;;;3.90;;
20114;SDS011;10218;42.874;25.320;2023-07-31T12:11:48;5.63;;;3.87;;
20114;SDS011;10218;42.874;25.320;2023-07-31T12:14:21;5.77;;;4.13;;
20114;SDS011;10218;42.874;25.320;2023-07-31T12:16:59;5.23;;;3.70;;
20114;SDS011;10218;42.874;25.320;2023-07-31T12:19:27;4.00;;;3.60;;
20114;SDS011;10218;42.874;25.320;2023-07-31T12:21:56;4.03;;;3.53;;
20114;SDS011;10218;42.874;25.320;2023-07-31T12:24:25;4.28;;;3.65;;
20114;SDS011;10218;42.874;25.320;2023-07-31T12:26:53;4.47;;;3.78;;
20114;SDS011;10218;42.874;25.320;2023-07-31T12:29:21;4.20;;;3.78;;
20114;SDS011;10218;42.874;25.320;2023-07-31T12:31:49;5.25;;;3.87;;
20114;SDS011;10218;42.874;25.320;2023-07-31T12:34:16;4.80;;;3.83;;
20114;SDS011;10218;42.874;25.320;2023-07-31T12:36:48;6.40;;;4.10;;
20114;SDS011;10218;42.874;25.320;2023-07-31T12:39:15;4.80;;;4.35;;
20114;SDS011;10218;42.874;25.320;2023-07-31T12:41:42;4.50;;;4.10;;
20114;SDS011;10218;42.874;25.320;2023-07-31T12:44:09;5.12;;;3.90;;
20114;SDS011;10218;42.874;25.320;2023-07-31T12:46:36;4.18;;;3.53;;
20114;SDS011;10218;42.874;25.320;2023-07-31T12:49:04;4.62;;;3.70;;
20114;SDS011;10218;42.874;25.320;2023-07-31T12:51:31;3.70;;;3.40;;
20114;SDS011;10218;42.874;25.320;2023-07-31T12:53:58;4.22;;;3.75;;
20114;SDS011;10218;42.874;25.320;2023-07-31T12:56:25;4.87;;;4.30;;
20114;SDS011;10218;42.874;25.320;2023-07-31T12:58:53;5.93;;;3.55;;
20114;SDS011;10218;42.874;25.320;2023-07-31T13:01:20;5.00;;;4.37;;
20114;SDS011;10218;42.874;25.320;2023-07-31T13:03:46;6.62;;;4.00;;
20114;SDS011;10218;42.874;25.320;2023-07-31T13:06:14;5.57;;;4.37;;
20114;SDS011;10218;42.874;25.320;2023-07-31T13:08:41;5.45;;;4.40;;
20114;SDS011;10218;42.874;25.320;2023-07-31T13:11:08;5.12;;;4.47;;
20114;SDS011;10218;42.874;25.320;2023-07-31T13:13:36;4.62;;;4.22;;
20114;SDS011;10218;42.874;25.320;2023-07-31T13:16:03;4.47;;;4.07;;
20114;SDS011;10218;42.874;25.320;2023-07-31T13:18:30;4.95;;;4.45;;
20114;SDS011;10218;42.874;25.320;2023-07-31T13:20:57;4.55;;;4.15;;
20114;SDS011;10218;42.874;25.320;2023-07-31T13:23:24;5.03;;;4.12;;
20114;SDS011;10218;42.874;25.320;2023-07-31T13:25:51;5.97;;;5.35;;
20114;SDS011;10218;42.874;25.320;2023-07-31T13:28:18;5.00;;;4.37;;
20114;SDS011;10218;42.874;25.320;2023-07-31T13:30:45;6.12;;;5.20;;
20114;SDS011;10218;42.874;25.320;2023-07-31T13:33:12;5.18;;;4.65;;
20114;SDS011;10218;42.874;25.320;2023-07-31T13:35:47;8.45;;;4.97;;
20114;SDS011;10218;42.874;25.320;2023-07-31T13:38:15;5.10;;;4.60;;
20114;SDS011;10218;42.874;25.320;2023-07-31T13:40:42;6.90;;;4.90;;
20114;SDS011;10218;42.874;25.320;2023-07-31T13:43:09;5.07;;;4.57;;
20114;SDS011;10218;42.874;25.320;2023-07-31T13:45:36;5.18;;;4.68;;
20114;SDS011;10218;42.874;25.320;2023-07-31T13:48:03;5.43;;;4.28;;
20114;SDS011;10218;42.874;25.320;2023-07-31T13:50:31;5.62;;;4.18;;
20114;SDS011;10218;42.874;25.320;2023-07-31T13:52:58;6.45;;;5.85;;
20114;SDS011;10218;42.874;25.320;2023-07-31T13:55:25;4.72;;;4.10;;
20114;SDS011;10218;42.874;25.320;2023-07-31T13:57:52;4.90;;;4.50;;
20114;SDS011;10218;42.874;25.320;2023-07-31T14:00:19;4.95;;;4.45;;
20114;SDS011;10218;42.874;25.320;2023-07-31T14:02:47;4.43;;;4.03;;
20114;SDS011;10218;42.874;25.320;2023-07-31T14:05:14;5.55;;;4.68;;
20114;SDS011;10218;42.874;25.320;2023-07-31T14:07:41;5.22;;;4.72;;
20114;SDS011;10218;42.874;25.320;2023-07-31T14:10:08;5.10;;;4.65;;
20114;SDS011;10218;42.874;25.320;2023-07-31T14:12:36;5.50;;;5.00;;
20114;SDS011;10218;42.874;25.320;2023-07-31T14:15:07;5.97;;;4.82;;
20114;SDS011;10218;42.874;25.320;2023-07-31T14:17:35;6.22;;;5.03;;
20114;SDS011;10218;42.874;25.320;2023-07-31T14:20:02;6.03;;;5.50;;
20114;SDS011;10218;42.874;25.320;2023-07-31T14:22:30;5.75;;;5.25;;
20114;SDS011;10218;42.874;25.320;2023-07-31T14:24:57;6.37;;;5.53;;
20114;SDS011;10218;42.874;25.320;2023-07-31T14:27:24;6.23;;;5.63;;
20114;SDS011;10218;42.874;25.320;2023-07-31T14:29:52;5.60;;;5.03;;
20114;SDS011;10218;42.874;25.320;2023-07-31T14:32:20;5.65;;;5.15;;
20114;SDS011;10218;42.874;25.320;2023-07-31T14:34:48;5.60;;;5.07;;
20114;SDS011;10218;42.874;25.320;2023-07-31T14:37:15;5.30;;;4.80;;
20114;SDS011;10218;42.874;25.320;2023-07-31T14:39:42;8.43;;;5.25;;
20114;SDS011;10218;42.874;25.320;2023-07-31T14:42:10;5.87;;;5.28;;